sensor_id;sensor_type;location;lat;lon;timestamp;P1;durP1;ratioP1;P2;durP2;ratioP2
24729;SDS011;12832;52.392;13.066;2023-05-07T00:00:21;1.30;;;1.20;;
24729;SDS011;12832;52.392;13.066;2023-05-07T00:02:48;1.20;;;1.10;;
24729;SDS011;12832;52.392;13.066;2023-05-07T00:05:16;1.33;;;1.23;;
24729;SDS011;12832;52.392;13.066;2023-05-07T00:07:43;1.10;;;1.00;;
24729;SDS011;12832;52.392;13.066;2023-05-07T00:10:09;1.30;;;1.20;;
24729;SDS011;12832;52.392;13.066;2023-05-07T00:12:38;2.00;;;1.33;;
24729;SDS011;12832;52.392;13.066;2023-05-07T00:15:04;1.60;;;1.30;;
24729;SDS011;12832;52.392;13.066;2023-05-07T00:17:32;1.00;;;1.00;;
24729;SDS011;12832;52.392;13.066;2023-05-07T00:19:58;1.05;;;0.98;;
24729;SDS011;12832;52.392;13.066;2023-05-07T00:22:25;1.25;;;1.15;;
24729;SDS011;12832;52.392;13.066;2023-05-07T00:24:52;1.35;;;1.25;;
24729;SDS011;12832;52.392;13.066;2023-05-07T00:27:19;1.45;;;1.35;;
24729;SDS011;12832;52.392;13.066;2023-05-07T00:29:45;1.30;;;1.20;;
24729;SDS011;12832;52.392;13.066;2023-05-07T00:32:11;1.33;;;1.23;;
24729;SDS011;12832;52.392;13.066;2023-05-07T00:34:37;1.98;;;1.35;;
24729;SDS011;12832;52.392;13.066;2023-05-07T00:37:05;1.65;;;1.05;;
24729;SDS011;12832;52.392;13.066;2023-05-07T00:39:33;1.25;;;1.15;;
24729;SDS011;12832;52.392;13.066;2023-05-07T00:41:59;1.30;;;1.08;;
24729;SDS011;12832;52.392;13.066;2023-05-07T00:44:26;1.27;;;1.17;;
24729;SDS011;12832;52.392;13.066;2023-05-07T00:46:53;1.38;;;1.27;;
24729;SDS011;12832;52.392;13.066;2023-05-07T00:49:19;1.75;;;1.50;;
24729;SDS011;12832;52.392;13.066;2023-05-07T00:51:45;1.33;;;1.20;;
24729;SDS011;12832;52.392;13.066;2023-05-07T00:54:12;3.28;;;1.60;;
24729;SDS011;12832;52.392;13.066;2023-05-07T00:56:39;1.63;;;1.48;;
24729;SDS011;12832;52.392;13.066;2023-05-07T00:59:05;1.48;;;1.33;;
24729;SDS011;12832;52.392;13.066;2023-05-07T01:01:32;1.38;;;1.27;;
24729;SDS011;12832;52.392;13.066;2023-05-07T01:03:58;1.30;;;1.20;;
24729;SDS011;12832;52.392;13.066;2023-05-07T01:06:25;1.50;;;1.40;;
24729;SDS011;12832;52.392;13.066;2023-05-07T01:08:53;1.60;;;1.50;;
24729;SDS011;12832;52.392;13.066;2023-05-07T01:11:22;2.67;;;1.48;;
24729;SDS011;12832;52.392;13.066;2023-05-07T01:13:48;1.52;;;1.42;;
24729;SDS011;12832;52.392;13.066;2023-05-07T01:16:15;1.60;;;1.40;;
24729;SDS011;12832;52.392;13.066;2023-05-07T01:18:42;1.90;;;1.70;;
24729;SDS011;12832;52.392;13.066;2023-05-07T01:21:08;1.77;;;1.17;;
24729;SDS011;12832;52.392;13.066;2023-05-07T01:23:37;1.48;;;1.38;;
24729;SDS011;12832;52.392;13.066;2023-05-07T01:26:05;1.45;;;1.35;;
24729;SDS011;12832;52.392;13.066;2023-05-07T01:28:31;1.50;;;1.40;;
24729;SDS011;12832;52.392;13.066;2023-05-07T01:31:00;1.55;;;1.45;;
24729;SDS011;12832;52.392;13.066;2023-05-07T01:33:30;1.67;;;1.58;;
24729;SDS011;12832;52.392;13.066;2023-05-07T01:35:59;1.10;;;1.10;;
24729;SDS011;12832;52.392;13.066;2023-05-07T01:38:27;1.20;;;1.10;;
24729;SDS011;12832;52.392;13.066;2023-05-07T01:40:55;1.52;;;1.40;;
24729;SDS011;12832;52.392;13.066;2023-05-07T01:43:21;1.30;;;1.20;;
24729;SDS011;12832;52.392;13.066;2023-05-07T01:45:48;1.95;;;1.77;;
24729;SDS011;12832;52.392;13.066;2023-05-07T01:48:15;1.77;;;1.67;;
24729;SDS011;12832;52.392;13.066;2023-05-07T01:50:42;1.48;;;1.38;;
24729;SDS011;12832;52.392;13.066;2023-05-07T01:53:09;1.48;;;1.38;;
24729;SDS011;12832;52.392;13.066;2023-05-07T01:55:36;1.60;;;1.50;;
24729;SDS011;12832;52.392;13.066;2023-05-07T01:58:05;1.70;;;1.58;;
24729;SDS011;12832;52.392;13.066;2023-05-07T02:00:31;1.60;;;1.50;;
24729;SDS011;12832;52.392;13.066;2023-05-07T02:02:58;1.60;;;1.50;;
24729;SDS011;12832;52.392;13.066;2023-05-07T02:05:24;1.60;;;1.50;;
24729;SDS011;12832;52.392;13.066;2023-05-07T02:07:51;1.58;;;1.48;;
24729;SDS011;12832;52.392;13.066;2023-05-07T02:10:17;1.77;;;1.67;;
24729;SDS011;12832;52.392;13.066;2023-05-07T02:12:43;1.20;;;1.10;;
24729;SDS011;12832;52.392;13.066;2023-05-07T02:15:10;1.52;;;1.42;;
24729;SDS011;12832;52.392;13.066;2023-05-07T02:17:39;1.83;;;1.50;;
24729;SDS011;12832;52.392;13.066;2023-05-07T02:20:23;1.25;;;1.15;;
24729;SDS011;12832;52.392;13.066;2023-05-07T02:22:49;1.83;;;1.42;;
24729;SDS011;12832;52.392;13.066;2023-05-07T02:25:15;1.33;;;1.23;;
24729;SDS011;12832;52.392;13.066;2023-05-07T02:27:41;1.42;;;1.33;;
24729;SDS011;12832;52.392;13.066;2023-05-07T02:30:07;1.42;;;1.33;;
24729;SDS011;12832;52.392;13.066;2023-05-07T02:32:34;1.42;;;1.30;;
24729;SDS011;12832;52.392;13.066;2023-05-07T02:35:00;1.30;;;1.20;;
24729;SDS011;12832;52.392;13.066;2023-05-07T02:37:26;1.30;;;1.20;;
24729;SDS011;12832;52.392;13.066;2023-05-07T02:39:52;1.40;;;1.30;;
24729;SDS011;12832;52.392;13.066;2023-05-07T02:42:19;1.23;;;1.13;;
24729;SDS011;12832;52.392;13.066;2023-05-07T02:44:45;1.40;;;1.30;;
24729;SDS011;12832;52.392;13.066;2023-05-07T02:47:11;1.35;;;1.15;;
24729;SDS011;12832;52.392;13.066;2023-05-07T02:49:38;1.30;;;1.20;;
24729;SDS011;12832;52.392;13.066;2023-05-07T02:52:05;1.20;;;1.10;;
24729;SDS011;12832;52.392;13.066;2023-05-07T02:54:31;1.58;;;1.23;;
24729;SDS011;12832;52.392;13.066;2023-05-07T02:56:57;1.30;;;1.20;;
24729;SDS011;12832;52.392;13.066;2023-05-07T02:59:23;1.33;;;1.23;;
24729;SDS011;12832;52.392;13.066;2023-05-07T03:01:52;1.38;;;1.00;;
24729;SDS011;12832;52.392;13.066;2023-05-07T03:04:18;1.17;;;1.05;;
24729;SDS011;12832;52.392;13.066;2023-05-07T03:06:44;1.17;;;1.08;;
24729;SDS011;12832;52.392;13.066;2023-05-07T03:09:10;1.17;;;1.08;;
24729;SDS011;12832;52.392;13.066;2023-05-07T03:11:36;1.40;;;1.30;;
24729;SDS011;12832;52.392;13.066;2023-05-07T03:14:03;1.35;;;1.23;;
24729;SDS011;12832;52.392;13.066;2023-05-07T03:16:29;1.20;;;1.10;;
24729;SDS011;12832;52.392;13.066;2023-05-07T03:18:55;1.77;;;1.17;;
24729;SDS011;12832;52.392;13.066;2023-05-07T03:21:21;1.30;;;1.20;;
24729;SDS011;12832;52.392;13.066;2023-05-07T03:23:48;1.23;;;1.13;;
24729;SDS011;12832;52.392;13.066;2023-05-07T03:26:14;1.48;;;1.20;;
24729;SDS011;12832;52.392;13.066;2023-05-07T03:28:40;1.25;;;1.15;;
24729;SDS011;12832;52.392;13.066;2023-05-07T03:31:06;1.30;;;1.20;;
24729;SDS011;12832;52.392;13.066;2023-05-07T03:33:33;0.80;;;0.80;;
24729;SDS011;12832;52.392;13.066;2023-05-07T03:35:59;1.00;;;1.00;;
24729;SDS011;12832;52.392;13.066;2023-05-07T03:38:25;1.05;;;1.00;;
24729;SDS011;12832;52.392;13.066;2023-05-07T03:40:52;1.15;;;1.10;;
24729;SDS011;12832;52.392;13.066;2023-05-07T03:43:18;1.15;;;1.08;;
24729;SDS011;12832;52.392;13.066;2023-05-07T03:45:44;1.30;;;1.20;;
24729;SDS011;12832;52.392;13.066;2023-05-07T03:48:10;1.42;;;1.33;;
24729;SDS011;12832;52.392;13.066;2023-05-07T03:50:37;1.00;;;1.00;;
24729;SDS011;12832;52.392;13.066;2023-05-07T03:53:04;0.90;;;0.90;;
24729;SDS011;12832;52.392;13.066;2023-05-07T03:55:30;1.15;;;1.05;;
24729;SDS011;12832;52.392;13.066;2023-05-07T03:57:56;1.10;;;0.90;;
24729;SDS011;12832;52.392;13.066;2023-05-07T04:00:22;0.95;;;0.90;;
24729;SDS011;12832;52.392;13.066;2023-05-07T04:02:49;0.90;;;0.90;;
24729;SDS011;12832;52.392;13.066;2023-05-07T04:05:15;1.00;;;1.00;;
24729;SDS011;12832;52.392;13.066;2023-05-07T04:07:42;0.90;;;0.90;;
24729;SDS011;12832;52.392;13.066;2023-05-07T04:10:08;0.90;;;0.90;;
24729;SDS011;12832;52.392;13.066;2023-05-07T04:12:35;1.00;;;0.95;;
24729;SDS011;12832;52.392;13.066;2023-05-07T04:15:02;0.82;;;0.82;;
24729;SDS011;12832;52.392;13.066;2023-05-07T04:17:28;0.80;;;0.80;;
24729;SDS011;12832;52.392;13.066;2023-05-07T04:19:54;0.80;;;0.75;;
24729;SDS011;12832;52.392;13.066;2023-05-07T04:22:21;0.82;;;0.80;;
24729;SDS011;12832;52.392;13.066;2023-05-07T04:24:47;0.90;;;0.90;;
24729;SDS011;12832;52.392;13.066;2023-05-07T04:27:13;0.90;;;0.90;;
24729;SDS011;12832;52.392;13.066;2023-05-07T04:29:39;0.98;;;0.93;;
24729;SDS011;12832;52.392;13.066;2023-05-07T04:32:08;0.75;;;0.75;;
24729;SDS011;12832;52.392;13.066;2023-05-07T04:34:35;1.10;;;1.00;;
24729;SDS011;12832;52.392;13.066;2023-05-07T04:37:01;0.80;;;0.80;;
24729;SDS011;12832;52.392;13.066;2023-05-07T04:39:27;0.77;;;0.77;;
24729;SDS011;12832;52.392;13.066;2023-05-07T04:41:53;0.75;;;0.75;;
24729;SDS011;12832;52.392;13.066;2023-05-07T04:44:20;0.80;;;0.80;;
24729;SDS011;12832;52.392;13.066;2023-05-07T04:46:46;0.60;;;0.60;;
24729;SDS011;12832;52.392;13.066;2023-05-07T04:49:12;0.80;;;0.80;;
24729;SDS011;12832;52.392;13.066;2023-05-07T04:51:38;0.93;;;0.80;;
24729;SDS011;12832;52.392;13.066;2023-05-07T04:54:08;0.70;;;0.70;;
24729;SDS011;12832;52.392;13.066;2023-05-07T04:56:35;0.70;;;0.70;;
24729;SDS011;12832;52.392;13.066;2023-05-07T04:59:01;0.95;;;0.93;;
24729;SDS011;12832;52.392;13.066;2023-05-07T05:01:27;0.77;;;0.77;;
24729;SDS011;12832;52.392;13.066;2023-05-07T05:03:54;0.80;;;0.80;;
24729;SDS011;12832;52.392;13.066;2023-05-07T05:06:20;0.90;;;0.90;;
24729;SDS011;12832;52.392;13.066;2023-05-07T05:08:46;0.80;;;0.80;;
24729;SDS011;12832;52.392;13.066;2023-05-07T05:11:13;0.70;;;0.70;;
24729;SDS011;12832;52.392;13.066;2023-05-07T05:13:39;0.82;;;0.82;;
24729;SDS011;12832;52.392;13.066;2023-05-07T05:16:05;0.70;;;0.70;;
24729;SDS011;12832;52.392;13.066;2023-05-07T05:18:32;0.70;;;0.70;;
24729;SDS011;12832;52.392;13.066;2023-05-07T05:20:58;0.80;;;0.80;;
24729;SDS011;12832;52.392;13.066;2023-05-07T05:23:24;0.68;;;0.68;;
24729;SDS011;12832;52.392;13.066;2023-05-07T05:25:55;0.75;;;0.75;;
24729;SDS011;12832;52.392;13.066;2023-05-07T05:28:22;0.70;;;0.70;;
24729;SDS011;12832;52.392;13.066;2023-05-07T05:30:48;0.70;;;0.70;;
24729;SDS011;12832;52.392;13.066;2023-05-07T05:33:15;0.80;;;0.80;;
24729;SDS011;12832;52.392;13.066;2023-05-07T05:35:41;0.90;;;0.90;;
24729;SDS011;12832;52.392;13.066;2023-05-07T05:38:08;0.60;;;0.60;;
24729;SDS011;12832;52.392;13.066;2023-05-07T05:40:34;0.77;;;0.77;;
24729;SDS011;12832;52.392;13.066;2023-05-07T05:43:00;0.73;;;0.73;;
24729;SDS011;12832;52.392;13.066;2023-05-07T05:45:26;0.70;;;0.70;;
24729;SDS011;12832;52.392;13.066;2023-05-07T05:47:52;0.80;;;0.57;;
24729;SDS011;12832;52.392;13.066;2023-05-07T05:50:19;0.80;;;0.80;;
24729;SDS011;12832;52.392;13.066;2023-05-07T05:52:45;0.55;;;0.55;;
24729;SDS011;12832;52.392;13.066;2023-05-07T05:55:11;0.60;;;0.60;;
24729;SDS011;12832;52.392;13.066;2023-05-07T05:57:37;0.75;;;0.60;;
24729;SDS011;12832;52.392;13.066;2023-05-07T06:00:04;0.70;;;0.70;;
24729;SDS011;12832;52.392;13.066;2023-05-07T06:02:30;0.50;;;0.50;;
24729;SDS011;12832;52.392;13.066;2023-05-07T06:04:57;0.70;;;0.70;;
24729;SDS011;12832;52.392;13.066;2023-05-07T06:07:23;0.70;;;0.70;;
24729;SDS011;12832;52.392;13.066;2023-05-07T06:09:49;0.70;;;0.70;;
24729;SDS011;12832;52.392;13.066;2023-05-07T06:12:15;0.65;;;0.65;;
24729;SDS011;12832;52.392;13.066;2023-05-07T06:14:44;0.50;;;0.50;;
24729;SDS011;12832;52.392;13.066;2023-05-07T06:17:10;0.60;;;0.60;;
24729;SDS011;12832;52.392;13.066;2023-05-07T06:19:37;0.60;;;0.60;;
24729;SDS011;12832;52.392;13.066;2023-05-07T06:22:03;0.90;;;0.90;;
24729;SDS011;12832;52.392;13.066;2023-05-07T06:24:29;0.60;;;0.60;;
24729;SDS011;12832;52.392;13.066;2023-05-07T06:26:55;0.60;;;0.60;;
24729;SDS011;12832;52.392;13.066;2023-05-07T06:29:24;0.75;;;0.75;;
24729;SDS011;12832;52.392;13.066;2023-05-07T06:31:54;0.80;;;0.80;;
24729;SDS011;12832;52.392;13.066;2023-05-07T06:34:20;0.70;;;0.70;;
24729;SDS011;12832;52.392;13.066;2023-05-07T06:36:47;0.60;;;0.60;;
24729;SDS011;12832;52.392;13.066;2023-05-07T06:39:13;0.70;;;0.70;;
24729;SDS011;12832;52.392;13.066;2023-05-07T06:41:39;0.57;;;0.57;;
24729;SDS011;12832;52.392;13.066;2023-05-07T06:44:05;0.70;;;0.70;;
24729;SDS011;12832;52.392;13.066;2023-05-07T06:46:31;0.65;;;0.65;;
24729;SDS011;12832;52.392;13.066;2023-05-07T06:48:58;0.60;;;0.60;;
24729;SDS011;12832;52.392;13.066;2023-05-07T06:51:24;0.90;;;0.77;;
24729;SDS011;12832;52.392;13.066;2023-05-07T06:53:50;0.70;;;0.60;;
24729;SDS011;12832;52.392;13.066;2023-05-07T06:56:17;0.63;;;0.63;;
24729;SDS011;12832;52.392;13.066;2023-05-07T06:58:43;0.60;;;0.60;;
24729;SDS011;12832;52.392;13.066;2023-05-07T07:01:09;0.82;;;0.80;;
24729;SDS011;12832;52.392;13.066;2023-05-07T07:03:35;0.63;;;0.63;;
24729;SDS011;12832;52.392;13.066;2023-05-07T07:06:01;0.75;;;0.73;;
24729;SDS011;12832;52.392;13.066;2023-05-07T07:08:28;0.40;;;0.40;;
24729;SDS011;12832;52.392;13.066;2023-05-07T07:10:55;0.60;;;0.60;;
24729;SDS011;12832;52.392;13.066;2023-05-07T07:13:21;0.60;;;0.60;;
24729;SDS011;12832;52.392;13.066;2023-05-07T07:15:47;0.80;;;0.80;;
24729;SDS011;12832;52.392;13.066;2023-05-07T07:18:14;0.50;;;0.50;;
24729;SDS011;12832;52.392;13.066;2023-05-07T07:20:40;0.50;;;0.50;;
24729;SDS011;12832;52.392;13.066;2023-05-07T07:23:07;0.60;;;0.60;;
24729;SDS011;12832;52.392;13.066;2023-05-07T07:25:33;0.60;;;0.55;;
24729;SDS011;12832;52.392;13.066;2023-05-07T07:27:59;0.70;;;0.68;;
24729;SDS011;12832;52.392;13.066;2023-05-07T07:30:25;0.70;;;0.70;;
24729;SDS011;12832;52.392;13.066;2023-05-07T07:32:51;0.77;;;0.60;;
24729;SDS011;12832;52.392;13.066;2023-05-07T07:35:18;0.80;;;0.80;;
24729;SDS011;12832;52.392;13.066;2023-05-07T07:37:44;0.80;;;0.80;;
24729;SDS011;12832;52.392;13.066;2023-05-07T07:40:11;0.60;;;0.60;;
24729;SDS011;12832;52.392;13.066;2023-05-07T07:42:38;0.70;;;0.70;;
24729;SDS011;12832;52.392;13.066;2023-05-07T07:45:04;0.55;;;0.55;;
24729;SDS011;12832;52.392;13.066;2023-05-07T07:47:30;1.05;;;0.95;;
24729;SDS011;12832;52.392;13.066;2023-05-07T07:49:57;0.60;;;0.60;;
24729;SDS011;12832;52.392;13.066;2023-05-07T07:52:23;0.75;;;0.75;;
24729;SDS011;12832;52.392;13.066;2023-05-07T07:54:49;0.70;;;0.70;;
24729;SDS011;12832;52.392;13.066;2023-05-07T07:57:15;0.93;;;0.73;;
24729;SDS011;12832;52.392;13.066;2023-05-07T07:59:41;0.77;;;0.77;;
24729;SDS011;12832;52.392;13.066;2023-05-07T08:02:08;0.60;;;0.60;;
24729;SDS011;12832;52.392;13.066;2023-05-07T08:04:35;0.93;;;0.80;;
24729;SDS011;12832;52.392;13.066;2023-05-07T08:07:03;0.70;;;0.70;;
24729;SDS011;12832;52.392;13.066;2023-05-07T08:09:29;0.50;;;0.50;;
24729;SDS011;12832;52.392;13.066;2023-05-07T08:11:55;1.30;;;0.77;;
24729;SDS011;12832;52.392;13.066;2023-05-07T08:14:21;0.65;;;0.65;;
24729;SDS011;12832;52.392;13.066;2023-05-07T08:16:47;0.52;;;0.52;;
24729;SDS011;12832;52.392;13.066;2023-05-07T08:19:14;1.10;;;0.80;;
24729;SDS011;12832;52.392;13.066;2023-05-07T08:21:40;0.70;;;0.70;;
24729;SDS011;12832;52.392;13.066;2023-05-07T08:24:06;0.73;;;0.73;;
24729;SDS011;12832;52.392;13.066;2023-05-07T08:26:32;0.70;;;0.70;;
24729;SDS011;12832;52.392;13.066;2023-05-07T08:28:59;0.70;;;0.70;;
24729;SDS011;12832;52.392;13.066;2023-05-07T08:31:25;0.80;;;0.63;;
24729;SDS011;12832;52.392;13.066;2023-05-07T08:33:51;0.70;;;0.70;;
24729;SDS011;12832;52.392;13.066;2023-05-07T08:36:17;0.85;;;0.80;;
24729;SDS011;12832;52.392;13.066;2023-05-07T08:38:44;0.80;;;0.80;;
24729;SDS011;12832;52.392;13.066;2023-05-07T08:41:11;0.55;;;0.55;;
24729;SDS011;12832;52.392;13.066;2023-05-07T08:43:37;0.90;;;0.68;;
24729;SDS011;12832;52.392;13.066;2023-05-07T08:46:06;0.70;;;0.70;;
24729;SDS011;12832;52.392;13.066;2023-05-07T08:48:35;2.30;;;0.70;;
24729;SDS011;12832;52.392;13.066;2023-05-07T08:51:02;0.80;;;0.77;;
24729;SDS011;12832;52.392;13.066;2023-05-07T08:53:28;0.73;;;0.73;;
24729;SDS011;12832;52.392;13.066;2023-05-07T08:55:55;0.80;;;0.80;;
24729;SDS011;12832;52.392;13.066;2023-05-07T08:58:21;1.00;;;0.70;;
24729;SDS011;12832;52.392;13.066;2023-05-07T09:00:47;0.80;;;0.80;;
24729;SDS011;12832;52.392;13.066;2023-05-07T09:03:14;0.90;;;0.80;;
24729;SDS011;12832;52.392;13.066;2023-05-07T09:05:40;0.60;;;0.60;;
24729;SDS011;12832;52.392;13.066;2023-05-07T09:08:08;0.60;;;0.60;;
24729;SDS011;12832;52.392;13.066;2023-05-07T09:10:34;0.85;;;0.85;;
24729;SDS011;12832;52.392;13.066;2023-05-07T09:13:00;0.90;;;0.82;;
24729;SDS011;12832;52.392;13.066;2023-05-07T09:15:28;0.98;;;0.60;;
24729;SDS011;12832;52.392;13.066;2023-05-07T09:17:58;0.98;;;0.93;;
24729;SDS011;12832;52.392;13.066;2023-05-07T09:20:26;0.93;;;0.93;;
24729;SDS011;12832;52.392;13.066;2023-05-07T09:22:55;0.90;;;0.82;;
24729;SDS011;12832;52.392;13.066;2023-05-07T09:25:28;0.70;;;0.70;;
24729;SDS011;12832;52.392;13.066;2023-05-07T09:27:55;1.00;;;0.90;;
24729;SDS011;12832;52.392;13.066;2023-05-07T09:30:22;0.95;;;0.95;;
24729;SDS011;12832;52.392;13.066;2023-05-07T09:32:48;1.30;;;0.80;;
24729;SDS011;12832;52.392;13.066;2023-05-07T09:35:15;1.08;;;0.98;;
24729;SDS011;12832;52.392;13.066;2023-05-07T09:37:42;0.70;;;0.70;;
24729;SDS011;12832;52.392;13.066;2023-05-07T09:40:10;0.77;;;0.77;;
24729;SDS011;12832;52.392;13.066;2023-05-07T09:42:46;1.13;;;0.90;;
24729;SDS011;12832;52.392;13.066;2023-05-07T09:45:13;1.90;;;0.80;;
24729;SDS011;12832;52.392;13.066;2023-05-07T09:47:39;0.85;;;0.77;;
24729;SDS011;12832;52.392;13.066;2023-05-07T09:50:11;1.00;;;1.00;;
24729;SDS011;12832;52.392;13.066;2023-05-07T09:52:40;1.20;;;0.90;;
24729;SDS011;12832;52.392;13.066;2023-05-07T09:55:07;1.10;;;0.90;;
24729;SDS011;12832;52.392;13.066;2023-05-07T09:57:36;1.00;;;0.90;;
24729;SDS011;12832;52.392;13.066;2023-05-07T10:00:04;0.70;;;0.70;;
24729;SDS011;12832;52.392;13.066;2023-05-07T10:02:32;0.80;;;0.80;;
24729;SDS011;12832;52.392;13.066;2023-05-07T10:05:00;0.73;;;0.70;;
24729;SDS011;12832;52.392;13.066;2023-05-07T10:07:27;0.80;;;0.80;;
24729;SDS011;12832;52.392;13.066;2023-05-07T10:09:55;0.98;;;0.90;;
24729;SDS011;12832;52.392;13.066;2023-05-07T10:12:21;0.70;;;0.70;;
24729;SDS011;12832;52.392;13.066;2023-05-07T10:14:48;1.00;;;0.90;;
24729;SDS011;12832;52.392;13.066;2023-05-07T10:17:18;0.85;;;0.85;;
24729;SDS011;12832;52.392;13.066;2023-05-07T10:19:45;0.70;;;0.70;;
24729;SDS011;12832;52.392;13.066;2023-05-07T10:22:12;0.85;;;0.85;;
24729;SDS011;12832;52.392;13.066;2023-05-07T10:24:41;0.95;;;0.90;;
24729;SDS011;12832;52.392;13.066;2023-05-07T10:27:10;1.02;;;0.80;;
24729;SDS011;12832;52.392;13.066;2023-05-07T10:29:52;0.95;;;0.90;;
24729;SDS011;12832;52.392;13.066;2023-05-07T10:35:16;1.15;;;1.05;;
24729;SDS011;12832;52.392;13.066;2023-05-07T10:37:46;0.80;;;0.80;;
24729;SDS011;12832;52.392;13.066;2023-05-07T10:40:13;1.02;;;0.93;;
24729;SDS011;12832;52.392;13.066;2023-05-07T10:42:52;0.80;;;0.80;;
24729;SDS011;12832;52.392;13.066;2023-05-07T10:45:22;0.80;;;0.80;;
24729;SDS011;12832;52.392;13.066;2023-05-07T10:48:08;0.93;;;0.93;;
24729;SDS011;12832;52.392;13.066;2023-05-07T10:50:53;0.98;;;0.90;;
24729;SDS011;12832;52.392;13.066;2023-05-07T10:53:47;1.15;;;0.80;;
24729;SDS011;12832;52.392;13.066;2023-05-07T10:58:42;1.00;;;0.90;;
24729;SDS011;12832;52.392;13.066;2023-05-07T11:01:08;0.90;;;0.90;;
24729;SDS011;12832;52.392;13.066;2023-05-07T11:03:36;1.27;;;1.00;;
24729;SDS011;12832;52.392;13.066;2023-05-07T11:06:41;0.80;;;0.80;;
24729;SDS011;12832;52.392;13.066;2023-05-07T11:09:07;0.90;;;0.90;;
24729;SDS011;12832;52.392;13.066;2023-05-07T11:11:46;0.90;;;0.90;;
24729;SDS011;12832;52.392;13.066;2023-05-07T11:14:14;0.82;;;0.82;;
24729;SDS011;12832;52.392;13.066;2023-05-07T11:17:03;1.27;;;0.90;;
24729;SDS011;12832;52.392;13.066;2023-05-07T11:22:35;0.88;;;0.88;;
24729;SDS011;12832;52.392;13.066;2023-05-07T11:25:05;1.27;;;1.17;;
24729;SDS011;12832;52.392;13.066;2023-05-07T11:27:32;0.80;;;0.80;;
24729;SDS011;12832;52.392;13.066;2023-05-07T11:29:59;0.93;;;0.90;;
24729;SDS011;12832;52.392;13.066;2023-05-07T11:32:30;1.00;;;0.95;;
24729;SDS011;12832;52.392;13.066;2023-05-07T11:34:59;0.82;;;0.82;;
24729;SDS011;12832;52.392;13.066;2023-05-07T11:37:26;1.00;;;1.00;;
24729;SDS011;12832;52.392;13.066;2023-05-07T11:40:04;1.30;;;1.20;;
24729;SDS011;12832;52.392;13.066;2023-05-07T11:42:33;1.10;;;0.90;;
24729;SDS011;12832;52.392;13.066;2023-05-07T11:45:01;1.15;;;0.80;;
24729;SDS011;12832;52.392;13.066;2023-05-07T11:47:29;0.90;;;0.80;;
24729;SDS011;12832;52.392;13.066;2023-05-07T11:49:57;0.82;;;0.82;;
24729;SDS011;12832;52.392;13.066;2023-05-07T11:52:33;0.85;;;0.85;;
24729;SDS011;12832;52.392;13.066;2023-05-07T11:55:00;1.42;;;1.00;;
24729;SDS011;12832;52.392;13.066;2023-05-07T11:57:29;0.80;;;0.80;;
24729;SDS011;12832;52.392;13.066;2023-05-07T11:59:55;1.25;;;0.80;;
24729;SDS011;12832;52.392;13.066;2023-05-07T12:02:23;1.02;;;1.00;;
24729;SDS011;12832;52.392;13.066;2023-05-07T12:04:52;1.15;;;1.05;;
24729;SDS011;12832;52.392;13.066;2023-05-07T12:07:19;1.08;;;0.98;;
24729;SDS011;12832;52.392;13.066;2023-05-07T12:09:45;0.80;;;0.80;;
24729;SDS011;12832;52.392;13.066;2023-05-07T12:12:13;0.93;;;0.80;;
24729;SDS011;12832;52.392;13.066;2023-05-07T12:14:43;1.00;;;0.98;;
24729;SDS011;12832;52.392;13.066;2023-05-07T12:17:12;0.88;;;0.85;;
24729;SDS011;12832;52.392;13.066;2023-05-07T12:19:41;0.80;;;0.80;;
24729;SDS011;12832;52.392;13.066;2023-05-07T12:22:08;1.10;;;1.00;;
24729;SDS011;12832;52.392;13.066;2023-05-07T12:24:48;0.63;;;0.60;;
24729;SDS011;12832;52.392;13.066;2023-05-07T12:27:15;1.15;;;1.00;;
24729;SDS011;12832;52.392;13.066;2023-05-07T12:29:49;0.80;;;0.80;;
24729;SDS011;12832;52.392;13.066;2023-05-07T12:32:16;0.70;;;0.70;;
24729;SDS011;12832;52.392;13.066;2023-05-07T12:34:44;0.95;;;0.95;;
24729;SDS011;12832;52.392;13.066;2023-05-07T12:37:11;1.00;;;0.90;;
24729;SDS011;12832;52.392;13.066;2023-05-07T12:39:59;0.80;;;0.80;;
24729;SDS011;12832;52.392;13.066;2023-05-07T12:42:35;0.98;;;0.90;;
24729;SDS011;12832;52.392;13.066;2023-05-07T12:45:11;1.15;;;1.10;;
24729;SDS011;12832;52.392;13.066;2023-05-07T12:47:43;1.27;;;1.10;;
24729;SDS011;12832;52.392;13.066;2023-05-07T12:50:10;1.30;;;1.10;;
24729;SDS011;12832;52.392;13.066;2023-05-07T12:52:37;1.10;;;1.00;;
24729;SDS011;12832;52.392;13.066;2023-05-07T12:55:06;0.98;;;0.85;;
24729;SDS011;12832;52.392;13.066;2023-05-07T12:57:45;0.93;;;0.90;;
24729;SDS011;12832;52.392;13.066;2023-05-07T13:00:14;1.20;;;1.10;;
24729;SDS011;12832;52.392;13.066;2023-05-07T13:02:41;0.80;;;0.80;;
24729;SDS011;12832;52.392;13.066;2023-05-07T13:05:11;1.17;;;1.08;;
24729;SDS011;12832;52.392;13.066;2023-05-07T13:07:38;0.90;;;0.90;;
24729;SDS011;12832;52.392;13.066;2023-05-07T13:10:06;0.73;;;0.73;;
24729;SDS011;12832;52.392;13.066;2023-05-07T13:12:33;0.60;;;0.60;;
24729;SDS011;12832;52.392;13.066;2023-05-07T13:14:59;1.13;;;1.00;;
24729;SDS011;12832;52.392;13.066;2023-05-07T13:17:25;0.80;;;0.80;;
24729;SDS011;12832;52.392;13.066;2023-05-07T13:19:51;0.80;;;0.80;;
24729;SDS011;12832;52.392;13.066;2023-05-07T13:22:17;0.82;;;0.82;;
24729;SDS011;12832;52.392;13.066;2023-05-07T13:24:44;0.73;;;0.73;;
24729;SDS011;12832;52.392;13.066;2023-05-07T13:27:10;1.40;;;1.30;;
24729;SDS011;12832;52.392;13.066;2023-05-07T13:29:36;0.90;;;0.90;;
24729;SDS011;12832;52.392;13.066;2023-05-07T13:32:02;0.70;;;0.70;;
24729;SDS011;12832;52.392;13.066;2023-05-07T13:34:28;1.60;;;1.00;;
24729;SDS011;12832;52.392;13.066;2023-05-07T13:36:55;1.00;;;0.90;;
24729;SDS011;12832;52.392;13.066;2023-05-07T13:39:21;0.90;;;0.80;;
24729;SDS011;12832;52.392;13.066;2023-05-07T13:41:47;0.90;;;0.90;;
24729;SDS011;12832;52.392;13.066;2023-05-07T13:44:13;1.20;;;1.10;;
24729;SDS011;12832;52.392;13.066;2023-05-07T13:46:39;0.98;;;0.80;;
24729;SDS011;12832;52.392;13.066;2023-05-07T13:49:05;1.27;;;1.10;;
24729;SDS011;12832;52.392;13.066;2023-05-07T13:51:31;1.17;;;1.00;;
24729;SDS011;12832;52.392;13.066;2023-05-07T13:53:58;0.70;;;0.70;;
24729;SDS011;12832;52.392;13.066;2023-05-07T13:56:24;0.82;;;0.82;;
24729;SDS011;12832;52.392;13.066;2023-05-07T13:58:50;0.80;;;0.80;;
24729;SDS011;12832;52.392;13.066;2023-05-07T14:01:25;0.70;;;0.70;;
24729;SDS011;12832;52.392;13.066;2023-05-07T14:03:52;1.13;;;1.00;;
24729;SDS011;12832;52.392;13.066;2023-05-07T14:06:18;1.10;;;1.00;;
24729;SDS011;12832;52.392;13.066;2023-05-07T14:08:45;1.20;;;1.10;;
24729;SDS011;12832;52.392;13.066;2023-05-07T14:11:11;1.10;;;1.00;;
24729;SDS011;12832;52.392;13.066;2023-05-07T14:13:37;1.17;;;1.08;;
24729;SDS011;12832;52.392;13.066;2023-05-07T14:16:03;0.80;;;0.80;;
24729;SDS011;12832;52.392;13.066;2023-05-07T14:18:30;0.88;;;0.88;;
24729;SDS011;12832;52.392;13.066;2023-05-07T14:20:56;0.73;;;0.73;;
24729;SDS011;12832;52.392;13.066;2023-05-07T14:23:22;0.82;;;0.82;;
24729;SDS011;12832;52.392;13.066;2023-05-07T14:25:52;0.85;;;0.85;;
24729;SDS011;12832;52.392;13.066;2023-05-07T14:28:19;0.75;;;0.75;;
24729;SDS011;12832;52.392;13.066;2023-05-07T14:30:45;0.63;;;0.63;;
24729;SDS011;12832;52.392;13.066;2023-05-07T14:33:12;0.82;;;0.82;;
24729;SDS011;12832;52.392;13.066;2023-05-07T14:35:38;1.10;;;0.80;;
24729;SDS011;12832;52.392;13.066;2023-05-07T14:38:04;0.93;;;0.90;;
24729;SDS011;12832;52.392;13.066;2023-05-07T14:40:30;0.90;;;0.90;;
24729;SDS011;12832;52.392;13.066;2023-05-07T14:42:56;0.98;;;0.98;;